createdAt,value
2023-02-02T00:03:38.079Z,100686.34
2023-02-02T00:08:39.472Z,100695.69
2023-02-02T00:13:40.888Z,100695.91
2023-02-02T00:18:42.187Z,100693.41
2023-02-02T00:23:43.524Z,100692.38
2023-02-02T00:28:44.951Z,100691.06
2023-02-02T00:33:48.232Z,100686.72
2023-02-02T00:38:50.650Z,100699.97
2023-02-02T00:44:11.931Z,100697.28
2023-02-02T00:49:13.242Z,100716.41
2023-02-02T00:54:14.602Z,100719.25
2023-02-02T00:59:15.918Z,100727.09
2023-02-02T01:04:17.290Z,100732.75
2023-02-02T01:09:18.604Z,100738.59
2023-02-02T01:14:20.011Z,100741.53
2023-02-02T01:19:21.324Z,100740.84
2023-02-02T01:24:22.654Z,100747.13
2023-02-02T01:29:24.268Z,100755.06
2023-02-02T01:34:25.613Z,100751.19
2023-02-02T01:39:26.976Z,100769.56
2023-02-02T01:45:25.880Z,100761.84
2023-02-02T01:50:29.669Z,100770.88
2023-02-02T01:55:32.983Z,100760.38
2023-02-02T02:00:34.350Z,100763.97
2023-02-02T02:05:58.630Z,100757.56
2023-02-02T02:11:00.051Z,100747.56
2023-02-02T02:16:18.733Z,100750.66
2023-02-02T02:22:05.217Z,100749.66
2023-02-02T02:27:37.210Z,100736.94
2023-02-02T02:33:05.425Z,100740.50
2023-02-02T02:38:16.164Z,100744.56
2023-02-02T02:43:25.747Z,100741.13
2023-02-02T02:48:28.954Z,100736.25
2023-02-02T02:53:30.412Z,100743.38
2023-02-02T02:58:35.999Z,100744.94
2023-02-02T03:03:47.779Z,100743.63
2023-02-02T03:08:55.324Z,100753.28
2023-02-02T03:13:56.731Z,100749.75
2023-02-02T03:18:58.164Z,100744.94
2023-02-02T03:23:59.707Z,100742.56
2023-02-02T03:29:01.771Z,100746.25
2023-02-02T03:34:03.178Z,100729.69
2023-02-02T03:39:04.488Z,100753.81
2023-02-02T03:44:05.815Z,100750.50
2023-02-02T03:49:07.154Z,100746.88
2023-02-02T03:54:08.460Z,100747.88
2023-02-02T03:59:09.772Z,100760.00
2023-02-02T04:04:11.105Z,100752.63
2023-02-02T04:09:12.426Z,100763.22
2023-02-02T04:14:13.795Z,100760.81
2023-02-02T04:19:15.787Z,100758.38
2023-02-02T04:24:17.093Z,100766.16
2023-02-02T04:29:18.400Z,100778.94
2023-02-02T04:34:19.712Z,100769.44
2023-02-02T04:39:21.020Z,100775.03
2023-02-02T04:44:22.334Z,100784.09
2023-02-02T04:49:23.706Z,100786.34
2023-02-02T04:54:25.023Z,100791.66
2023-02-02T04:59:28.541Z,100783.66
2023-02-02T05:04:30.010Z,100790.75
2023-02-02T05:09:31.337Z,100788.00
2023-02-02T05:14:32.695Z,100798.16
2023-02-02T05:19:34.005Z,100793.31
2023-02-02T05:24:35.329Z,100798.69
2023-02-02T05:29:36.705Z,100802.06
2023-02-02T05:34:38.055Z,100799.19
2023-02-02T05:39:39.527Z,100809.56
2023-02-02T05:44:40.867Z,100808.97
2023-02-02T05:49:42.224Z,100820.00
2023-02-02T05:54:44.060Z,100815.56
2023-02-02T05:59:45.408Z,100809.28
2023-02-02T06:04:46.763Z,100819.03
2023-02-02T06:09:48.085Z,100801.66
2023-02-02T06:14:49.421Z,100809.00
2023-02-02T06:19:50.744Z,100808.09
2023-02-02T06:24:53.364Z,100809.63
2023-02-02T06:29:54.718Z,100832.47
2023-02-02T06:34:56.191Z,100851.41
2023-02-02T06:39:57.500Z,100838.44
2023-02-02T06:44:58.809Z,100846.25
2023-02-02T06:50:00.162Z,100850.16
2023-02-02T06:55:01.570Z,100831.00
2023-02-02T07:31:44.758Z,100839.78
2023-02-02T07:36:46.192Z,100840.13
2023-02-02T07:41:47.556Z,100858.41
2023-02-02T07:46:49.021Z,100858.47
2023-02-02T07:51:50.687Z,100850.69
2023-02-02T07:56:52.066Z,100859.88
2023-02-02T08:01:53.486Z,100859.69
2023-02-02T08:06:54.867Z,100852.50
2023-02-02T08:12:01.531Z,100868.13
2023-02-02T08:17:03.402Z,100876.22
2023-02-02T08:22:04.731Z,100887.31
2023-02-02T08:27:08.079Z,100891.91
2023-02-02T08:32:09.405Z,100892.91
2023-02-02T08:37:10.722Z,100890.53
2023-02-02T08:42:12.106Z,100904.69
2023-02-02T08:47:13.450Z,100905.22
2023-02-02T08:52:14.987Z,100902.53
2023-02-02T08:57:17.084Z,100913.75
2023-02-02T09:02:18.594Z,100914.97
2023-02-02T09:07:21.261Z,100916.69
2023-02-02T09:33:30.430Z,100932.22
2023-02-02T09:38:31.783Z,100949.06
2023-02-02T09:43:44.564Z,100940.31
2023-02-02T10:37:16.750Z,101004.41
2023-02-02T10:42:39.149Z,100996.22
2023-02-02T10:59:11.707Z,101010.94
2023-02-02T11:04:31.961Z,100995.97
2023-02-02T11:09:40.082Z,101000.63
2023-02-02T11:15:01.810Z,101012.34
2023-02-02T11:20:23.001Z,101006.03
2023-02-02T11:25:32.996Z,101006.09
2023-02-02T11:30:37.044Z,101008.19
2023-02-02T11:35:53.544Z,101015.56
2023-02-02T11:41:04.090Z,101013.34
2023-02-02T11:46:14.034Z,101008.06
2023-02-02T11:51:23.497Z,101009.59
2023-02-02T11:56:26.817Z,101014.47
2023-02-02T12:01:34.804Z,100999.22
2023-02-02T12:06:38.245Z,101015.03
2023-02-02T12:11:50.833Z,101006.00
2023-02-02T12:17:00.606Z,101011.97
2023-02-02T12:22:25.841Z,101003.34
2023-02-02T12:27:55.456Z,101020.19
2023-02-02T12:33:34.504Z,101012.78
2023-02-02T12:39:14.798Z,101010.03
2023-02-02T12:44:52.339Z,101032.06
2023-02-02T12:50:24.358Z,101018.19
2023-02-02T12:55:48.689Z,101026.88
2023-02-02T13:01:07.377Z,101032.53
2023-02-02T13:06:33.107Z,101020.03
2023-02-02T13:11:50.851Z,101029.38
2023-02-02T13:16:57.173Z,101025.44
2023-02-02T13:22:02.244Z,101033.16
2023-02-02T13:27:07.237Z,101032.47
2023-02-02T13:32:17.371Z,101035.31
2023-02-02T13:37:27.480Z,101032.28
2023-02-02T13:42:43.444Z,101043.53
2023-02-02T13:47:55.100Z,101040.19
2023-02-02T13:53:23.361Z,101029.63
2023-02-02T13:58:42.839Z,101043.59
2023-02-02T14:03:52.868Z,101039.94
2023-02-02T14:08:58.284Z,101051.41
2023-02-02T14:14:28.533Z,101058.25
2023-02-02T14:19:35.876Z,101061.16
2023-02-02T14:24:46.935Z,101072.31
2023-02-02T14:29:54.171Z,101085.72
2023-02-02T14:34:56.526Z,101083.41
2023-02-02T14:40:08.508Z,101096.38
2023-02-02T14:45:12.600Z,101101.06
2023-02-02T14:50:24.827Z,101109.31
2023-02-02T14:55:27.720Z,101113.84
2023-02-02T15:00:33.693Z,101129.50
2023-02-02T15:05:38.914Z,101118.09
2023-02-02T15:10:53.729Z,101116.00
2023-02-02T15:16:13.907Z,101131.91
2023-02-02T15:21:21.783Z,101120.22
2023-02-02T15:26:32.742Z,101136.59
2023-02-02T15:31:40.182Z,101144.66
2023-02-02T15:36:46.378Z,101148.63
2023-02-02T15:41:49.747Z,101150.34
2023-02-02T15:46:51.164Z,101154.00
2023-02-02T15:51:54.683Z,101161.56
2023-02-02T15:56:58.395Z,101167.47
2023-02-02T16:02:09.608Z,101180.44
2023-02-02T16:07:17.958Z,101177.34
2023-02-02T16:12:21.362Z,101186.19
2023-02-02T16:17:28.276Z,101198.47
2023-02-02T16:22:31.120Z,101199.69
2023-02-02T16:27:32.690Z,101195.56
2023-02-02T16:32:37.104Z,101209.59
2023-02-02T16:37:38.521Z,101217.47
2023-02-02T16:42:39.881Z,101225.16
2023-02-02T16:47:41.322Z,101211.59
2023-02-02T16:52:53.534Z,101216.00
2023-02-02T16:57:54.880Z,101227.94
2023-02-02T17:03:06.218Z,101226.91
2023-02-02T17:08:08.281Z,101234.88
2023-02-02T17:13:32.192Z,101245.50
2023-02-02T17:18:33.776Z,101264.00
2023-02-02T17:23:36.816Z,101268.88
2023-02-02T17:28:40.607Z,101264.50
2023-02-02T17:33:43.384Z,101272.06
2023-02-02T17:38:44.708Z,101278.72
2023-02-02T17:43:46.095Z,101282.75
2023-02-02T17:48:47.511Z,101281.56
2023-02-02T17:53:48.985Z,101270.81
2023-02-02T17:58:50.368Z,101286.59
2023-02-02T18:03:52.076Z,101280.53
2023-02-02T18:08:53.633Z,101282.53
2023-02-02T18:13:55.008Z,101280.88
2023-02-02T18:18:58.170Z,101283.66
2023-02-02T18:23:59.576Z,101289.44
2023-02-02T18:29:00.973Z,101293.59
2023-02-02T18:34:02.325Z,101292.75
2023-02-02T18:39:03.780Z,101299.03
2023-02-02T18:44:05.109Z,101305.75
2023-02-02T18:49:06.419Z,101299.72
2023-02-02T18:54:10.356Z,101307.59
2023-02-02T18:59:11.703Z,101305.06
2023-02-02T19:04:13.089Z,101306.56
2023-02-02T19:09:17.055Z,101297.38
2023-02-02T19:14:20.206Z,101291.94
2023-02-02T19:19:33.658Z,101280.47
2023-02-02T19:24:39.107Z,101285.38
2023-02-02T19:29:40.454Z,101291.84
2023-02-02T19:34:41.851Z,101282.72
2023-02-02T19:39:44.549Z,101282.38
2023-02-02T19:44:45.924Z,101285.56
2023-02-02T19:49:47.252Z,101283.34
2023-02-02T19:54:49.657Z,101274.72
2023-02-02T19:59:52.575Z,101268.34
2023-02-02T20:05:19.629Z,101274.03
2023-02-02T20:10:24.965Z,101269.66
2023-02-02T20:15:36.294Z,101280.59
2023-02-02T20:20:39.434Z,101289.34
2023-02-02T20:25:44.085Z,101303.09
2023-02-02T20:30:45.480Z,101317.75
2023-02-02T20:35:46.868Z,101302.47
2023-02-02T20:40:48.346Z,101311.75
2023-02-02T20:45:50.224Z,101328.13
2023-02-02T20:50:51.623Z,101324.13
2023-02-02T20:55:58.003Z,101332.81
2023-02-02T21:01:00.229Z,101332.19
2023-02-02T21:06:01.590Z,101329.97
2023-02-02T21:11:03.004Z,101342.94
2023-02-02T21:16:04.812Z,101338.03
2023-02-02T21:21:06.153Z,101335.75
2023-02-02T21:26:07.455Z,101337.44
2023-02-02T21:31:10.350Z,101334.06
2023-02-02T21:36:27.992Z,101327.97
2023-02-02T21:41:32.116Z,101320.13
2023-02-02T21:46:37.968Z,101309.63
2023-02-02T21:51:39.437Z,101321.75
2023-02-02T21:56:41.836Z,101326.38
2023-02-02T22:01:45.202Z,101329.34
2023-02-02T22:06:50.335Z,101323.28
2023-02-02T22:12:01.339Z,101322.59
2023-02-02T22:17:18.404Z,101328.03
2023-02-02T22:22:26.846Z,101321.69
2023-02-02T22:27:41.276Z,101328.66
2023-02-02T22:32:42.605Z,101329.34
2023-02-02T22:37:43.989Z,101356.22
2023-02-02T22:42:45.311Z,101345.59
2023-02-02T22:47:47.685Z,101333.19
2023-02-02T22:52:49.233Z,101330.63
2023-02-02T22:57:50.740Z,101336.63
2023-02-02T23:02:53.345Z,101338.28
2023-02-02T23:07:55.264Z,101353.44
2023-02-02T23:12:58.380Z,101357.09
2023-02-02T23:18:00.169Z,101348.50
2023-02-02T23:23:01.564Z,101334.78
2023-02-02T23:28:02.935Z,101322.50
2023-02-02T23:33:04.474Z,101342.63
2023-02-02T23:38:05.820Z,101340.06
2023-02-02T23:43:07.159Z,101350.56
2023-02-02T23:48:09.722Z,101374.91
2023-02-02T23:53:11.327Z,101373.50
2023-02-02T23:58:13.528Z,101391.91
